sensor_id;sensor_type;location;lat;lon;timestamp;pressure;altitude;pressure_sealevel;temperature;humidity
18137;BME280;9194;42.632;23.298;2022-12-18T00:02:48;93226.19;;;8.33;100.00
18137;BME280;9194;42.632;23.298;2022-12-18T00:07:50;93237.41;;;8.46;100.00
18137;BME280;9194;42.632;23.298;2022-12-18T00:12:51;93251.56;;;8.16;100.00
18137;BME280;9194;42.632;23.298;2022-12-18T00:17:52;93249.75;;;8.10;100.00
18137;BME280;9194;42.632;23.298;2022-12-18T00:22:54;93252.72;;;8.07;100.00
18137;BME280;9194;42.632;23.298;2022-12-18T00:27:55;93264.91;;;7.78;100.00
18137;BME280;9194;42.632;23.298;2022-12-18T00:32:57;93269.44;;;7.98;100.00
18137;BME280;9194;42.632;23.298;2022-12-18T00:38:00;93272.72;;;8.13;100.00
18137;BME280;9194;42.632;23.298;2022-12-18T00:43:01;93272.66;;;8.06;100.00
18137;BME280;9194;42.632;23.298;2022-12-18T00:48:03;93276.94;;;7.86;100.00
18137;BME280;9194;42.632;23.298;2022-12-18T00:53:05;93282.59;;;7.75;100.00
18137;BME280;9194;42.632;23.298;2022-12-18T00:58:06;93287.00;;;7.74;100.00
18137;BME280;9194;42.632;23.298;2022-12-18T01:03:12;93291.28;;;7.89;100.00
18137;BME280;9194;42.632;23.298;2022-12-18T01:08:14;93288.09;;;7.65;100.00
18137;BME280;9194;42.632;23.298;2022-12-18T01:13:18;93306.63;;;7.62;100.00
18137;BME280;9194;42.632;23.298;2022-12-18T01:18:19;93312.66;;;7.27;100.00
18137;BME280;9194;42.632;23.298;2022-12-18T01:23:20;93303.72;;;7.08;100.00
18137;BME280;9194;42.632;23.298;2022-12-18T01:28:22;93315.09;;;6.92;100.00
18137;BME280;9194;42.632;23.298;2022-12-18T01:33:23;93320.53;;;6.97;100.00
18137;BME280;9194;42.632;23.298;2022-12-18T01:38:24;93322.88;;;6.78;100.00
18137;BME280;9194;42.632;23.298;2022-12-18T01:48:47;93333.59;;;6.60;100.00
18137;BME280;9194;42.632;23.298;2022-12-18T01:53:50;93338.59;;;6.62;100.00
18137;BME280;9194;42.632;23.298;2022-12-18T01:59:05;93337.59;;;6.48;100.00
18137;BME280;9194;42.632;23.298;2022-12-18T02:04:26;93333.50;;;6.39;100.00
18137;BME280;9194;42.632;23.298;2022-12-18T02:09:33;93342.44;;;6.51;100.00
18137;BME280;9194;42.632;23.298;2022-12-18T02:15:10;93345.81;;;6.66;100.00
18137;BME280;9194;42.632;23.298;2022-12-18T02:20:25;93352.41;;;6.54;100.00
18137;BME280;9194;42.632;23.298;2022-12-18T02:26:01;93359.03;;;6.56;100.00
18137;BME280;9194;42.632;23.298;2022-12-18T02:31:04;93347.59;;;6.51;100.00
18137;BME280;9194;42.632;23.298;2022-12-18T02:36:08;93352.06;;;6.42;100.00
18137;BME280;9194;42.632;23.298;2022-12-18T02:41:13;93356.16;;;6.37;100.00
18137;BME280;9194;42.632;23.298;2022-12-18T02:51:53;93365.16;;;6.41;100.00
18137;BME280;9194;42.632;23.298;2022-12-18T02:56:58;93358.19;;;6.41;100.00
18137;BME280;9194;42.632;23.298;2022-12-18T03:02:26;93363.91;;;6.22;100.00
18137;BME280;9194;42.632;23.298;2022-12-18T03:07:38;93365.75;;;6.13;100.00
18137;BME280;9194;42.632;23.298;2022-12-18T03:12:49;93372.78;;;6.05;100.00
18137;BME280;9194;42.632;23.298;2022-12-18T03:17:59;93373.66;;;5.97;100.00
18137;BME280;9194;42.632;23.298;2022-12-18T03:23:15;93385.94;;;5.95;100.00
18137;BME280;9194;42.632;23.298;2022-12-18T03:28:22;93369.81;;;5.93;100.00
18137;BME280;9194;42.632;23.298;2022-12-18T03:33:45;93369.41;;;6.04;100.00
18137;BME280;9194;42.632;23.298;2022-12-18T03:38:49;93395.78;;;6.00;100.00
18137;BME280;9194;42.632;23.298;2022-12-18T03:44:00;93402.03;;;6.05;100.00
18137;BME280;9194;42.632;23.298;2022-12-18T03:49:12;93412.97;;;6.07;100.00
18137;BME280;9194;42.632;23.298;2022-12-18T03:54:17;93418.19;;;6.22;100.00
18137;BME280;9194;42.632;23.298;2022-12-18T03:59:28;93423.88;;;6.17;100.00
18137;BME280;9194;42.632;23.298;2022-12-18T04:04:34;93425.19;;;6.13;100.00
18137;BME280;9194;42.632;23.298;2022-12-18T04:09:39;93429.41;;;6.14;100.00
18137;BME280;9194;42.632;23.298;2022-12-18T04:14:42;93451.28;;;5.81;100.00
18137;BME280;9194;42.632;23.298;2022-12-18T04:19:44;93451.69;;;5.93;100.00
18137;BME280;9194;42.632;23.298;2022-12-18T04:24:46;93456.53;;;5.65;100.00
18137;BME280;9194;42.632;23.298;2022-12-18T04:29:59;93465.31;;;5.78;100.00
18137;BME280;9194;42.632;23.298;2022-12-18T04:35:01;93469.47;;;5.65;100.00
18137;BME280;9194;42.632;23.298;2022-12-18T04:40:06;93475.16;;;5.52;100.00
18137;BME280;9194;42.632;23.298;2022-12-18T04:45:14;93483.41;;;5.48;100.00
18137;BME280;9194;42.632;23.298;2022-12-18T04:50:16;93492.59;;;5.50;100.00
18137;BME280;9194;42.632;23.298;2022-12-18T04:55:20;93500.56;;;5.41;100.00
18137;BME280;9194;42.632;23.298;2022-12-18T05:00:22;93506.03;;;5.46;100.00
18137;BME280;9194;42.632;23.298;2022-12-18T05:05:23;93504.44;;;5.36;100.00
18137;BME280;9194;42.632;23.298;2022-12-18T05:10:24;93509.56;;;5.45;100.00
18137;BME280;9194;42.632;23.298;2022-12-18T05:15:30;93526.41;;;5.32;100.00
18137;BME280;9194;42.632;23.298;2022-12-18T05:20:32;93520.13;;;5.35;100.00
18137;BME280;9194;42.632;23.298;2022-12-18T05:25:33;93527.28;;;5.48;100.00
18137;BME280;9194;42.632;23.298;2022-12-18T05:30:38;93533.47;;;5.38;100.00
18137;BME280;9194;42.632;23.298;2022-12-18T05:35:39;93552.81;;;5.43;100.00
18137;BME280;9194;42.632;23.298;2022-12-18T05:40:42;93560.88;;;5.48;100.00
18137;BME280;9194;42.632;23.298;2022-12-18T05:45:45;93566.13;;;5.23;100.00
18137;BME280;9194;42.632;23.298;2022-12-18T05:50:47;93563.28;;;5.49;100.00
18137;BME280;9194;42.632;23.298;2022-12-18T05:55:49;93562.66;;;5.47;100.00
18137;BME280;9194;42.632;23.298;2022-12-18T06:00:51;93569.31;;;5.42;100.00
18137;BME280;9194;42.632;23.298;2022-12-18T06:05:52;93587.59;;;5.08;100.00
18137;BME280;9194;42.632;23.298;2022-12-18T06:10:53;93582.22;;;5.33;100.00
18137;BME280;9194;42.632;23.298;2022-12-18T06:15:55;93596.25;;;5.31;100.00
18137;BME280;9194;42.632;23.298;2022-12-18T06:20:57;93588.38;;;5.24;100.00
18137;BME280;9194;42.632;23.298;2022-12-18T06:25:58;93600.00;;;5.20;100.00
18137;BME280;9194;42.632;23.298;2022-12-18T06:30:59;93594.34;;;5.25;100.00
18137;BME280;9194;42.632;23.298;2022-12-18T06:36:04;93606.28;;;5.26;100.00
18137;BME280;9194;42.632;23.298;2022-12-18T06:41:17;93608.19;;;5.32;100.00
18137;BME280;9194;42.632;23.298;2022-12-18T06:46:19;93615.59;;;5.43;100.00
18137;BME280;9194;42.632;23.298;2022-12-18T06:51:22;93628.34;;;5.45;100.00
18137;BME280;9194;42.632;23.298;2022-12-18T06:56:23;93638.59;;;5.69;100.00
18137;BME280;9194;42.632;23.298;2022-12-18T07:01:25;93631.03;;;5.59;100.00
18137;BME280;9194;42.632;23.298;2022-12-18T07:06:26;93639.22;;;5.71;100.00
18137;BME280;9194;42.632;23.298;2022-12-18T07:11:27;93640.25;;;5.54;100.00
18137;BME280;9194;42.632;23.298;2022-12-18T07:16:29;93646.38;;;5.61;100.00
18137;BME280;9194;42.632;23.298;2022-12-18T07:21:30;93649.09;;;5.67;100.00
18137;BME280;9194;42.632;23.298;2022-12-18T07:26:31;93648.94;;;5.61;100.00
18137;BME280;9194;42.632;23.298;2022-12-18T07:31:33;93655.78;;;5.46;100.00
18137;BME280;9194;42.632;23.298;2022-12-18T07:36:34;93664.50;;;5.45;100.00
18137;BME280;9194;42.632;23.298;2022-12-18T07:41:35;93661.09;;;5.44;100.00
18137;BME280;9194;42.632;23.298;2022-12-18T07:46:43;93664.63;;;5.51;100.00
18137;BME280;9194;42.632;23.298;2022-12-18T07:51:44;93667.97;;;5.68;100.00
18137;BME280;9194;42.632;23.298;2022-12-18T07:56:50;93684.16;;;5.54;100.00
18137;BME280;9194;42.632;23.298;2022-12-18T08:01:53;93680.78;;;5.53;99.52
18137;BME280;9194;42.632;23.298;2022-12-18T08:06:54;93692.34;;;5.65;99.29
18137;BME280;9194;42.632;23.298;2022-12-18T08:11:56;93706.78;;;5.19;100.00
18137;BME280;9194;42.632;23.298;2022-12-18T08:16:57;93719.50;;;5.37;100.00
18137;BME280;9194;42.632;23.298;2022-12-18T08:21:58;93721.97;;;5.22;100.00
18137;BME280;9194;42.632;23.298;2022-12-18T08:27:00;93726.94;;;5.40;100.00
18137;BME280;9194;42.632;23.298;2022-12-18T08:32:01;93726.13;;;5.31;100.00
18137;BME280;9194;42.632;23.298;2022-12-18T08:37:02;93732.44;;;5.45;100.00
18137;BME280;9194;42.632;23.298;2022-12-18T08:42:04;93744.53;;;5.36;100.00
18137;BME280;9194;42.632;23.298;2022-12-18T08:47:23;93740.97;;;5.70;100.00
18137;BME280;9194;42.632;23.298;2022-12-18T08:52:26;93739.34;;;5.61;100.00
18137;BME280;9194;42.632;23.298;2022-12-18T08:57:29;93737.06;;;5.82;100.00
18137;BME280;9194;42.632;23.298;2022-12-18T09:02:30;93739.31;;;5.85;100.00
18137;BME280;9194;42.632;23.298;2022-12-18T09:07:31;93731.75;;;5.67;100.00
18137;BME280;9194;42.632;23.298;2022-12-18T09:12:33;93738.72;;;5.51;100.00
18137;BME280;9194;42.632;23.298;2022-12-18T09:17:34;93735.63;;;5.63;100.00
18137;BME280;9194;42.632;23.298;2022-12-18T09:22:35;93727.84;;;5.79;100.00
18137;BME280;9194;42.632;23.298;2022-12-18T09:27:37;93734.84;;;5.63;100.00
18137;BME280;9194;42.632;23.298;2022-12-18T09:32:38;93737.38;;;5.79;100.00
18137;BME280;9194;42.632;23.298;2022-12-18T09:37:39;93737.41;;;5.87;100.00
18137;BME280;9194;42.632;23.298;2022-12-18T09:42:45;93747.75;;;5.63;100.00
18137;BME280;9194;42.632;23.298;2022-12-18T09:47:52;93737.06;;;5.82;100.00
18137;BME280;9194;42.632;23.298;2022-12-18T09:52:56;93735.72;;;6.02;100.00
18137;BME280;9194;42.632;23.298;2022-12-18T09:58:05;93737.06;;;5.90;100.00
18137;BME280;9194;42.632;23.298;2022-12-18T10:03:10;93734.19;;;6.32;100.00
18137;BME280;9194;42.632;23.298;2022-12-18T10:08:30;93726.69;;;6.45;99.34
18137;BME280;9194;42.632;23.298;2022-12-18T10:13:52;93736.84;;;6.47;97.16
18137;BME280;9194;42.632;23.298;2022-12-18T10:29:45;93743.50;;;5.78;100.00
18137;BME280;9194;42.632;23.298;2022-12-18T10:34:47;93745.16;;;5.87;100.00
18137;BME280;9194;42.632;23.298;2022-12-18T10:40:18;93742.84;;;6.00;98.36
18137;BME280;9194;42.632;23.298;2022-12-18T10:45:20;93740.91;;;6.02;98.07
18137;BME280;9194;42.632;23.298;2022-12-18T10:50:29;93740.47;;;5.74;100.00
18137;BME280;9194;42.632;23.298;2022-12-18T10:55:37;93746.78;;;5.64;100.00
18137;BME280;9194;42.632;23.298;2022-12-18T11:00:41;93725.41;;;5.86;99.64
18137;BME280;9194;42.632;23.298;2022-12-18T11:05:42;93733.81;;;5.80;99.25
18137;BME280;9194;42.632;23.298;2022-12-18T11:10:46;93748.41;;;5.41;97.44
18137;BME280;9194;42.632;23.298;2022-12-18T11:15:49;93746.16;;;5.46;92.72
18137;BME280;9194;42.632;23.298;2022-12-18T11:20:53;93743.69;;;5.68;93.89
18137;BME280;9194;42.632;23.298;2022-12-18T11:25:59;93749.03;;;5.43;85.32
18137;BME280;9194;42.632;23.298;2022-12-18T11:31:18;93739.53;;;5.43;87.15
18137;BME280;9194;42.632;23.298;2022-12-18T11:36:21;93737.75;;;5.52;89.05
18137;BME280;9194;42.632;23.298;2022-12-18T11:41:53;93741.31;;;5.34;82.10
18137;BME280;9194;42.632;23.298;2022-12-18T11:52:38;93746.78;;;5.31;80.83
18137;BME280;9194;42.632;23.298;2022-12-18T12:35:12;93741.59;;;5.88;86.87
18137;BME280;9194;42.632;23.298;2022-12-18T12:40:19;93754.81;;;5.77;89.12
18137;BME280;9194;42.632;23.298;2022-12-18T12:45:34;93751.75;;;5.82;90.50
18137;BME280;9194;42.632;23.298;2022-12-18T12:50:38;93754.38;;;5.57;89.65
18137;BME280;9194;42.632;23.298;2022-12-18T12:55:42;93759.69;;;5.40;89.46
18137;BME280;9194;42.632;23.298;2022-12-18T13:00:55;93758.25;;;5.45;89.02
18137;BME280;9194;42.632;23.298;2022-12-18T13:06:04;93763.25;;;5.63;89.31
18137;BME280;9194;42.632;23.298;2022-12-18T13:11:43;93780.53;;;5.30;90.35
18137;BME280;9194;42.632;23.298;2022-12-18T13:22:30;93782.94;;;5.31;90.91
18137;BME280;9194;42.632;23.298;2022-12-18T13:32:46;93806.81;;;5.33;91.73
18137;BME280;9194;42.632;23.298;2022-12-18T13:37:52;93804.25;;;5.42;92.79
18137;BME280;9194;42.632;23.298;2022-12-18T13:42:54;93808.44;;;5.34;92.43
18137;BME280;9194;42.632;23.298;2022-12-18T13:48:16;93810.38;;;5.41;92.05
18137;BME280;9194;42.632;23.298;2022-12-18T13:53:23;93816.84;;;5.53;94.08
18137;BME280;9194;42.632;23.298;2022-12-18T13:58:25;93816.97;;;5.43;91.96
18137;BME280;9194;42.632;23.298;2022-12-18T14:03:28;93821.84;;;5.62;93.06
18137;BME280;9194;42.632;23.298;2022-12-18T14:08:34;93828.75;;;5.78;91.83
18137;BME280;9194;42.632;23.298;2022-12-18T14:13:39;93826.53;;;5.59;93.81
18137;BME280;9194;42.632;23.298;2022-12-18T14:18:56;93827.81;;;5.63;93.47
18137;BME280;9194;42.632;23.298;2022-12-18T14:24:13;93842.63;;;5.36;92.73
18137;BME280;9194;42.632;23.298;2022-12-18T14:29:27;93840.06;;;5.28;94.60
18137;BME280;9194;42.632;23.298;2022-12-18T14:34:29;93844.09;;;5.39;94.43
18137;BME280;9194;42.632;23.298;2022-12-18T14:39:30;93837.78;;;5.25;96.53
18137;BME280;9194;42.632;23.298;2022-12-18T14:44:31;93833.44;;;5.42;97.50
18137;BME280;9194;42.632;23.298;2022-12-18T14:49:33;93837.00;;;5.33;93.39
18137;BME280;9194;42.632;23.298;2022-12-18T14:54:37;93837.63;;;5.27;91.49
18137;BME280;9194;42.632;23.298;2022-12-18T14:59:38;93842.94;;;5.25;92.37
18137;BME280;9194;42.632;23.298;2022-12-18T15:04:40;93844.53;;;5.10;92.48
18137;BME280;9194;42.632;23.298;2022-12-18T15:25:42;93865.00;;;5.04;94.57
18137;BME280;9194;42.632;23.298;2022-12-18T15:36:07;93879.63;;;4.95;91.93
18137;BME280;9194;42.632;23.298;2022-12-18T15:41:13;93888.28;;;4.78;89.33
18137;BME280;9194;42.632;23.298;2022-12-18T15:46:18;93896.06;;;4.86;89.63
18137;BME280;9194;42.632;23.298;2022-12-18T15:51:21;93898.75;;;4.76;88.44
18137;BME280;9194;42.632;23.298;2022-12-18T15:56:23;93895.06;;;4.79;89.76
18137;BME280;9194;42.632;23.298;2022-12-18T16:01:46;93911.03;;;4.82;89.86
18137;BME280;9194;42.632;23.298;2022-12-18T16:06:49;93915.13;;;4.59;88.38
18137;BME280;9194;42.632;23.298;2022-12-18T16:11:50;93923.56;;;4.43;89.43
18137;BME280;9194;42.632;23.298;2022-12-18T16:16:57;93930.41;;;4.61;88.86
18137;BME280;9194;42.632;23.298;2022-12-18T16:21:59;93930.88;;;4.56;88.67
18137;BME280;9194;42.632;23.298;2022-12-18T16:27:00;93929.88;;;4.49;87.34
18137;BME280;9194;42.632;23.298;2022-12-18T16:32:02;93925.63;;;4.40;84.53
18137;BME280;9194;42.632;23.298;2022-12-18T16:37:05;93934.78;;;4.34;80.82
18137;BME280;9194;42.632;23.298;2022-12-18T16:42:12;93951.88;;;4.35;81.71
18137;BME280;9194;42.632;23.298;2022-12-18T16:47:15;93939.56;;;4.55;82.42
18137;BME280;9194;42.632;23.298;2022-12-18T16:52:18;93962.41;;;4.42;86.44
18137;BME280;9194;42.632;23.298;2022-12-18T16:57:21;93979.63;;;4.41;84.05
18137;BME280;9194;42.632;23.298;2022-12-18T17:02:24;93969.13;;;4.17;80.21
18137;BME280;9194;42.632;23.298;2022-12-18T17:07:26;93988.91;;;4.34;81.23
18137;BME280;9194;42.632;23.298;2022-12-18T17:12:28;93998.44;;;4.16;77.40
18137;BME280;9194;42.632;23.298;2022-12-18T17:17:29;94013.09;;;3.98;76.29
18137;BME280;9194;42.632;23.298;2022-12-18T17:22:30;94009.25;;;4.02;77.25
18137;BME280;9194;42.632;23.298;2022-12-18T17:27:32;94016.84;;;4.03;74.50
18137;BME280;9194;42.632;23.298;2022-12-18T17:32:33;94014.78;;;3.89;73.88
18137;BME280;9194;42.632;23.298;2022-12-18T17:37:34;94023.91;;;3.84;79.56
18137;BME280;9194;42.632;23.298;2022-12-18T17:42:36;94010.50;;;3.98;76.46
18137;BME280;9194;42.632;23.298;2022-12-18T17:47:37;94008.25;;;3.95;77.72
18137;BME280;9194;42.632;23.298;2022-12-18T17:52:38;94008.16;;;3.87;79.76
18137;BME280;9194;42.632;23.298;2022-12-18T17:57:41;94000.78;;;4.09;77.98
18137;BME280;9194;42.632;23.298;2022-12-18T18:02:42;93998.31;;;4.00;78.02
18137;BME280;9194;42.632;23.298;2022-12-18T18:07:44;94010.88;;;3.85;76.73
18137;BME280;9194;42.632;23.298;2022-12-18T18:12:45;94001.16;;;3.79;76.18
18137;BME280;9194;42.632;23.298;2022-12-18T18:18:05;94008.06;;;3.79;70.61
18137;BME280;9194;42.632;23.298;2022-12-18T18:23:06;94016.00;;;3.67;73.11
18137;BME280;9194;42.632;23.298;2022-12-18T18:28:08;94025.22;;;3.88;73.29
18137;BME280;9194;42.632;23.298;2022-12-18T18:33:09;94016.38;;;3.90;73.34
18137;BME280;9194;42.632;23.298;2022-12-18T18:38:10;94027.00;;;3.87;71.75
18137;BME280;9194;42.632;23.298;2022-12-18T18:43:12;94027.31;;;3.84;76.04
18137;BME280;9194;42.632;23.298;2022-12-18T18:48:13;94034.25;;;3.74;76.61
18137;BME280;9194;42.632;23.298;2022-12-18T18:53:14;94043.94;;;3.62;80.19
18137;BME280;9194;42.632;23.298;2022-12-18T18:58:16;94041.47;;;3.70;82.07
18137;BME280;9194;42.632;23.298;2022-12-18T19:03:17;94041.69;;;3.59;82.80
18137;BME280;9194;42.632;23.298;2022-12-18T19:08:21;94058.50;;;3.54;85.18
18137;BME280;9194;42.632;23.298;2022-12-18T19:13:24;94064.94;;;3.40;87.84
18137;BME280;9194;42.632;23.298;2022-12-18T19:18:26;94069.84;;;3.34;87.66
18137;BME280;9194;42.632;23.298;2022-12-18T19:23:29;94069.31;;;3.30;86.21
18137;BME280;9194;42.632;23.298;2022-12-18T19:28:30;94069.28;;;3.40;87.99
18137;BME280;9194;42.632;23.298;2022-12-18T19:33:35;94066.56;;;3.41;85.55
18137;BME280;9194;42.632;23.298;2022-12-18T19:38:37;94064.94;;;3.40;84.98
18137;BME280;9194;42.632;23.298;2022-12-18T19:43:39;94072.91;;;3.47;85.09
18137;BME280;9194;42.632;23.298;2022-12-18T19:48:41;94084.47;;;3.33;84.37
18137;BME280;9194;42.632;23.298;2022-12-18T19:53:43;94102.72;;;3.40;87.46
18137;BME280;9194;42.632;23.298;2022-12-18T19:58:45;94103.19;;;3.25;87.39
18137;BME280;9194;42.632;23.298;2022-12-18T20:03:47;94098.44;;;3.21;86.90
18137;BME280;9194;42.632;23.298;2022-12-18T20:08:49;94097.91;;;3.27;87.49
18137;BME280;9194;42.632;23.298;2022-12-18T20:13:51;94113.03;;;2.93;87.64
18137;BME280;9194;42.632;23.298;2022-12-18T20:18:52;94116.25;;;3.05;88.03
18137;BME280;9194;42.632;23.298;2022-12-18T20:23:54;94115.16;;;2.98;89.19
18137;BME280;9194;42.632;23.298;2022-12-18T20:28:56;94108.22;;;2.61;89.64
18137;BME280;9194;42.632;23.298;2022-12-18T20:33:58;94114.16;;;2.52;88.50
18137;BME280;9194;42.632;23.298;2022-12-18T20:38:59;94131.22;;;2.43;89.52
18137;BME280;9194;42.632;23.298;2022-12-18T20:44:00;94141.75;;;2.50;87.72
18137;BME280;9194;42.632;23.298;2022-12-18T20:49:02;94147.41;;;2.25;90.45
18137;BME280;9194;42.632;23.298;2022-12-18T20:54:03;94165.94;;;2.09;90.08
18137;BME280;9194;42.632;23.298;2022-12-18T20:59:05;94160.16;;;2.26;90.85
18137;BME280;9194;42.632;23.298;2022-12-18T21:04:07;94155.25;;;2.23;88.81
18137;BME280;9194;42.632;23.298;2022-12-18T21:09:09;94154.03;;;2.18;88.75
18137;BME280;9194;42.632;23.298;2022-12-18T21:14:16;94145.78;;;2.33;90.61
18137;BME280;9194;42.632;23.298;2022-12-18T21:19:21;94155.00;;;2.36;88.20
18137;BME280;9194;42.632;23.298;2022-12-18T21:24:25;94155.78;;;2.17;88.80
18137;BME280;9194;42.632;23.298;2022-12-18T21:29:27;94145.41;;;2.38;90.75
18137;BME280;9194;42.632;23.298;2022-12-18T21:34:29;94145.66;;;2.25;88.52
18137;BME280;9194;42.632;23.298;2022-12-18T21:39:31;94147.13;;;2.28;88.64
18137;BME280;9194;42.632;23.298;2022-12-18T21:44:33;94158.22;;;2.09;92.38
18137;BME280;9194;42.632;23.298;2022-12-18T21:49:34;94157.66;;;2.05;91.09
18137;BME280;9194;42.632;23.298;2022-12-18T21:54:35;94144.00;;;2.05;89.61
18137;BME280;9194;42.632;23.298;2022-12-18T21:59:38;94150.25;;;2.22;90.64
18137;BME280;9194;42.632;23.298;2022-12-18T22:04:41;94158.41;;;1.77;90.85
18137;BME280;9194;42.632;23.298;2022-12-18T22:09:43;94167.47;;;1.81;91.58
18137;BME280;9194;42.632;23.298;2022-12-18T22:14:47;94167.59;;;1.80;92.79
18137;BME280;9194;42.632;23.298;2022-12-18T22:19:48;94175.97;;;1.82;93.85
18137;BME280;9194;42.632;23.298;2022-12-18T22:24:49;94172.03;;;1.68;92.60
18137;BME280;9194;42.632;23.298;2022-12-18T22:29:53;94163.25;;;1.40;92.90
18137;BME280;9194;42.632;23.298;2022-12-18T22:35:07;94155.66;;;1.69;93.27
18137;BME280;9194;42.632;23.298;2022-12-18T22:40:16;94150.53;;;1.69;92.72
18137;BME280;9194;42.632;23.298;2022-12-18T22:45:19;94142.88;;;1.79;93.07
18137;BME280;9194;42.632;23.298;2022-12-18T22:50:20;94136.41;;;1.84;92.91
18137;BME280;9194;42.632;23.298;2022-12-18T22:55:22;94130.22;;;1.96;92.31
18137;BME280;9194;42.632;23.298;2022-12-18T23:00:23;94122.75;;;1.93;92.76
18137;BME280;9194;42.632;23.298;2022-12-18T23:05:25;94134.94;;;2.01;92.72
18137;BME280;9194;42.632;23.298;2022-12-18T23:10:26;94134.66;;;2.04;91.67
18137;BME280;9194;42.632;23.298;2022-12-18T23:15:27;94146.56;;;1.95;93.07
18137;BME280;9194;42.632;23.298;2022-12-18T23:20:29;94154.19;;;1.76;93.51
18137;BME280;9194;42.632;23.298;2022-12-18T23:25:30;94155.41;;;1.72;94.67
18137;BME280;9194;42.632;23.298;2022-12-18T23:30:32;94157.47;;;1.78;94.52
18137;BME280;9194;42.632;23.298;2022-12-18T23:35:33;94153.81;;;1.81;94.79
18137;BME280;9194;42.632;23.298;2022-12-18T23:40:35;94156.53;;;1.49;94.91
18137;BME280;9194;42.632;23.298;2022-12-18T23:45:37;94154.81;;;1.29;97.15
18137;BME280;9194;42.632;23.298;2022-12-18T23:50:38;94156.13;;;1.44;96.87
18137;BME280;9194;42.632;23.298;2022-12-18T23:55:42;94159.13;;;1.49;96.69
